Terminal Aerodrome Forecast
Issued by NWS

Home | Current Version | Previous Version | Text Only | Print | Product List | Glossary On
Versions: 1 2 3 4 5 6 7 8 9 10 11 12 13 14 15
027
FTUS43 KICT 231720
TAFRSL
TAF
KRSL 231720Z 2318/2418 18014G22KT P6SM SCT150
     FM240200 16009KT P6SM VCTS SCT070CB BKN120
     FM240600 17007KT P6SM BKN150 WS020/22040KT
     FM241300 VRB05KT P6SM BKN150
     FM241500 03009KT P6SM BKN150=

USA.gov is the U.S. government's official web portal to all federal, state and local government web resources and services.